»·PEaware :: N255BJ L88-KSBP

N255BJ :: L88-KSBP

FLIGHT INFORMATION

Flight Status: Arrived
Operator: Privately registered:
United States
More flights under this callsign
Pilot: Rei C. (30414)
Aircraft: CIRRUS SR-22
(SR22)
More flights by this aircraft type
Origin: L88 New Cuyama
United States
Destination: KSBP San Luis Co Regl
United States
More flights between these airports :: More routes between these airports
Route: SPLNT
File this flight plan on PilotEdge
Remarks:
Altitude:
(Current/Filed)
7,500ft
Speed:
(Current/Filed)
150kts
Departed: 04-Jan-22 07:14 PM
Arrived: 04-Jan-22 07:58 PM
Distance/Time
Traveled:
50nm/0:44
Distance/Time
To Go:
Arrived

Flight Plot

Page will automatically refresh every two minutes.

Flight plan parsing failed; only flown route is shown


Map Options




Map Legend


Flown Route
Filed Route
Departure Airport
Arrival Airport
Navaid (VOR, NDB)
Fix

Horizontal Profiles

Position Reports

Time Latitude Longitude Heading Altitude Ground
Speed
04-Jan-22 19:05 34.942860 -119.690283 204 2156ft 0kts
04-Jan-22 19:06 34.942860 -119.690283 204 2156ft 0kts
04-Jan-22 19:07 34.942860 -119.690283 204 2156ft 0kts
04-Jan-22 19:08 34.942860 -119.690283 204 2156ft 0kts
04-Jan-22 19:09 34.942671 -119.691136 186 2154ft 5kts
04-Jan-22 19:10 34.942420 -119.691157 186 2155ft 0kts
04-Jan-22 19:11 34.942420 -119.691157 187 2155ft 0kts
04-Jan-22 19:12 34.942045 -119.690631 99 2157ft 6kts
04-Jan-22 19:13 34.938607 -119.677182 83 3044ft 64kts
04-Jan-22 19:14 34.946310 -119.677953 310 3880ft 87kts
04-Jan-22 19:15 34.950436 -119.690465 263 4857ft 78kts
04-Jan-22 19:16 34.949045 -119.708960 263 5825ft 88kts
04-Jan-22 19:17 34.952410 -119.728947 298 7079ft 87kts
04-Jan-22 19:18 34.956446 -119.738693 295 7334ft 117kts
04-Jan-22 19:19 34.963869 -119.759579 292 7498ft 142kts
04-Jan-22 19:20 34.972110 -119.785092 290 7501ft 150kts
04-Jan-22 19:21 34.978724 -119.807091 290 7501ft 152kts
04-Jan-22 19:22 34.984912 -119.827023 290 7500ft 153kts
04-Jan-22 19:23 34.991510 -119.848105 290 7498ft 153kts
04-Jan-22 19:24 34.997305 -119.866640 290 7345ft 163kts
04-Jan-22 19:25 35.003437 -119.886289 290 7186ft 163kts
04-Jan-22 19:26 35.009439 -119.905339 290 7170ft 158kts
04-Jan-22 19:27 35.015430 -119.924838 289 7167ft 155kts
04-Jan-22 19:28 35.021071 -119.944097 290 7170ft 154kts
04-Jan-22 19:29 35.026829 -119.962882 290 7167ft 153kts
04-Jan-22 19:30 35.032586 -119.981395 290 7166ft 153kts
04-Jan-22 19:31 35.038324 -119.999803 290 7165ft 153kts
04-Jan-22 19:32 35.044441 -120.019421 290 7165ft 153kts
04-Jan-22 19:33 35.050851 -120.040017 290 7164ft 153kts
04-Jan-22 19:34 35.057529 -120.061535 290 7160ft 153kts
04-Jan-22 19:36 35.063680 -120.081341 290 6837ft 155kts
04-Jan-22 19:37 35.071412 -120.106185 290 6168ft 155kts
04-Jan-22 19:38 35.080072 -120.134084 290 5416ft 154kts
04-Jan-22 19:39 35.088834 -120.162382 290 5158ft 151kts
04-Jan-22 19:40 35.097856 -120.191369 290 4788ft 140kts
04-Jan-22 19:41 35.106412 -120.219065 290 4436ft 133kts
04-Jan-22 19:42 35.115597 -120.248867 290 4067ft 130kts
04-Jan-22 19:43 35.124195 -120.276769 290 3715ft 129kts
04-Jan-22 19:44 35.129272 -120.293198 290 3508ft 128kts
04-Jan-22 19:45 35.133210 -120.305984 290 3342ft 128kts
04-Jan-22 19:46 35.141012 -120.331263 290 3171ft 117kts
04-Jan-22 19:47 35.147821 -120.354221 285 3066ft 110kts
04-Jan-22 19:48 35.153010 -120.380542 278 2632ft 117kts
04-Jan-22 19:49 35.156699 -120.408234 284 2347ft 121kts
04-Jan-22 19:50 35.163481 -120.438011 288 2357ft 127kts
04-Jan-22 19:51 35.171770 -120.468607 290 2054ft 140kts
04-Jan-22 19:52 35.181419 -120.501880 283 1343ft 134kts
04-Jan-22 19:53 35.188586 -120.532927 304 947ft 117kts
04-Jan-22 19:54 35.197878 -120.561143 300 856ft 125kts
04-Jan-22 19:55 35.208746 -120.589476 293 855ft 118kts
04-Jan-22 19:56 35.219381 -120.609682 304 792ft 94kts
04-Jan-22 19:57 35.228734 -120.625964 303 461ft 83kts
04-Jan-22 19:58 35.236674 -120.639702 322 215ft 27kts
04-Jan-22 19:58 35.237271 -120.639886 359 215ft 0kts
04-Jan-22 19:59 35.237403 -120.639881 359 215ft 14kts

Navigation Log

Ident Type
Flight plan parsing failed, navigation log unavailable